DAL250 EKCH-EDDH
Flight info
| Callsign | DAL250 |
|---|---|
| Flight time | 0h 38m |
| Altitude | 22000 |
| Route | NEXEN T503 MICOS N850 BOGMU BOGMU3N |
| Aircraft | B739/M-SDE2E3FGHIRWXY/LB1 |
Departure
| Time | 2026-05-05 13:27 |
|---|---|
| Airport | Copenhagen Kastrup Airport (EKCH) |
Arrival
| Time | 2026-05-05 14:05 |
|---|---|
| Airport | Hamburg Helmut Schmidt Airport (EDDH) |
| Time | Latitude | Longitude | Altitude | Speed | Heading |
|---|---|---|---|---|---|
| 2026-05-05 13:07 | 55.62727 | 12.65182 | 18 ft | 0 kts | 357° |
| 2026-05-05 13:16 | 55.62712 | 12.65184 | 18 ft | 2 kts | 357° |
| 2026-05-05 13:16 | 55.62696 | 12.65185 | 18 ft | 2 kts | 357° |
| 2026-05-05 13:16 | 55.62680 | 12.65187 | 18 ft | 2 kts | 357° |
| 2026-05-05 13:16 | 55.62664 | 12.65188 | 18 ft | 2 kts | 357° |
| 2026-05-05 13:17 | 55.62648 | 12.65190 | 18 ft | 2 kts | 356° |
| 2026-05-05 13:17 | 55.62632 | 12.65192 | 18 ft | 2 kts | 357° |
| 2026-05-05 13:17 | 55.62617 | 12.65193 | 18 ft | 2 kts | 357° |
| 2026-05-05 13:17 | 55.62602 | 12.65195 | 18 ft | 1 kts | 357° |
| 2026-05-05 13:18 | 55.62596 | 12.65195 | 18 ft | 0 kts | 358° |
| 2026-05-05 13:20 | 55.62608 | 12.65196 | 18 ft | 2 kts | 344° |
| 2026-05-05 13:20 | 55.62603 | 12.65163 | 18 ft | 5 kts | 182° |
| 2026-05-05 13:21 | 55.62553 | 12.65193 | 18 ft | 9 kts | 169° |
| 2026-05-05 13:21 | 55.62475 | 12.65200 | 18 ft | 12 kts | 178° |
| 2026-05-05 13:21 | 55.62374 | 12.65204 | 18 ft | 15 kts | 180° |
| 2026-05-05 13:21 | 55.62271 | 12.65194 | 17 ft | 10 kts | 181° |
| 2026-05-05 13:22 | 55.62197 | 12.65164 | 15 ft | 10 kts | 210° |
| 2026-05-05 13:22 | 55.62167 | 12.65131 | 15 ft | 0 kts | 212° |
| 2026-05-05 13:22 | 55.62162 | 12.65126 | 15 ft | 3 kts | 212° |
| 2026-05-05 13:22 | 55.62105 | 12.65062 | 15 ft | 15 kts | 212° |
| 2026-05-05 13:23 | 55.61974 | 12.64910 | 15 ft | 25 kts | 214° |
| 2026-05-05 13:23 | 55.61829 | 12.64742 | 15 ft | 24 kts | 214° |
| 2026-05-05 13:23 | 55.61690 | 12.64583 | 15 ft | 22 kts | 212° |
| 2026-05-05 13:23 | 55.61560 | 12.64433 | 15 ft | 21 kts | 213° |
| 2026-05-05 13:24 | 55.61425 | 12.64279 | 16 ft | 25 kts | 213° |
| 2026-05-05 13:24 | 55.61271 | 12.64097 | 16 ft | 26 kts | 214° |
| 2026-05-05 13:24 | 55.61118 | 12.63926 | 16 ft | 25 kts | 213° |
| 2026-05-05 13:24 | 55.60974 | 12.63759 | 16 ft | 23 kts | 214° |
| 2026-05-05 13:25 | 55.60844 | 12.63609 | 15 ft | 18 kts | 211° |
| 2026-05-05 13:25 | 55.60743 | 12.63671 | 15 ft | 16 kts | 129° |
| 2026-05-05 13:25 | 55.60679 | 12.63829 | 15 ft | 15 kts | 101° |
| 2026-05-05 13:25 | 55.60735 | 12.63961 | 15 ft | 12 kts | 41° |
| 2026-05-05 13:26 | 55.60744 | 12.63975 | 15 ft | 0 kts | 40° |
| 2026-05-05 13:26 | 55.60748 | 12.63982 | 15 ft | 12 kts | 40° |
| 2026-05-05 13:26 | 55.61041 | 12.64387 | 15 ft | 90 kts | 34° |
| 2026-05-05 13:27 | 55.61691 | 12.65369 | 15 ft | 148 kts | 42° |
| 2026-05-05 13:27 | 55.62524 | 12.66715 | 456 ft | 169 kts | 39° |
| 2026-05-05 13:27 | 55.63452 | 12.68113 | 1133 ft | 182 kts | 38° |
| 2026-05-05 13:27 | 55.64434 | 12.69615 | 1917 ft | 189 kts | 39° |
| 2026-05-05 13:28 | 55.65435 | 12.71249 | 2523 ft | 203 kts | 40° |
| 2026-05-05 13:28 | 55.66522 | 12.72922 | 3181 ft | 215 kts | 38° |
| 2026-05-05 13:28 | 55.67778 | 12.74783 | 3860 ft | 231 kts | 40° |
| 2026-05-05 13:28 | 55.68864 | 12.77319 | 4496 ft | 252 kts | 64° |
| 2026-05-05 13:29 | 55.69232 | 12.80564 | 5115 ft | 272 kts | 89° |
| 2026-05-05 13:29 | 55.68917 | 12.83896 | 5963 ft | 279 kts | 105° |
| 2026-05-05 13:29 | 55.68032 | 12.87124 | 6733 ft | 289 kts | 128° |
| 2026-05-05 13:29 | 55.66444 | 12.89409 | 7681 ft | 287 kts | 156° |
| 2026-05-05 13:30 | 55.64561 | 12.90655 | 8519 ft | 290 kts | 166° |
| 2026-05-05 13:30 | 55.62550 | 12.91211 | 9366 ft | 286 kts | 185° |
| 2026-05-05 13:30 | 55.60501 | 12.90727 | 10217 ft | 285 kts | 198° |
| 2026-05-05 13:30 | 55.58503 | 12.89423 | 10790 ft | 294 kts | 213° |
| 2026-05-05 13:31 | 55.56802 | 12.86974 | 11317 ft | 303 kts | 228° |
| 2026-05-05 13:31 | 55.55236 | 12.84045 | 11839 ft | 318 kts | 230° |
| 2026-05-05 13:31 | 55.53634 | 12.81020 | 12338 ft | 333 kts | 229° |
| 2026-05-05 13:31 | 55.51926 | 12.77852 | 12796 ft | 348 kts | 229° |
| 2026-05-05 13:32 | 55.50142 | 12.74429 | 13381 ft | 357 kts | 231° |
| 2026-05-05 13:32 | 55.48430 | 12.70869 | 14212 ft | 359 kts | 232° |
| 2026-05-05 13:32 | 55.46815 | 12.67412 | 14945 ft | 363 kts | 233° |
| 2026-05-05 13:32 | 55.45123 | 12.63781 | 15785 ft | 364 kts | 232° |
| 2026-05-05 13:33 | 55.43387 | 12.60083 | 16477 ft | 369 kts | 232° |
| 2026-05-05 13:33 | 55.41634 | 12.56386 | 17191 ft | 373 kts | 232° |
| 2026-05-05 13:33 | 55.39915 | 12.52785 | 17868 ft | 376 kts | 232° |
| 2026-05-05 13:33 | 55.38153 | 12.49112 | 18581 ft | 378 kts | 232° |
| 2026-05-05 13:34 | 55.36397 | 12.45461 | 19176 ft | 383 kts | 232° |
| 2026-05-05 13:34 | 55.34669 | 12.41874 | 19792 ft | 387 kts | 232° |
| 2026-05-05 13:34 | 55.32912 | 12.38234 | 20379 ft | 390 kts | 232° |
| 2026-05-05 13:34 | 55.31163 | 12.34614 | 20953 ft | 394 kts | 231° |
| 2026-05-05 13:35 | 55.29371 | 12.30910 | 21556 ft | 397 kts | 231° |
| 2026-05-05 13:35 | 55.27552 | 12.27154 | 21902 ft | 399 kts | 231° |
| 2026-05-05 13:35 | 55.25734 | 12.23409 | 21924 ft | 394 kts | 231° |
| 2026-05-05 13:35 | 55.23951 | 12.19741 | 21924 ft | 398 kts | 231° |
| 2026-05-05 13:36 | 55.22108 | 12.16011 | 21921 ft | 398 kts | 230° |
| 2026-05-05 13:36 | 55.20204 | 12.12515 | 21915 ft | 399 kts | 225° |
| 2026-05-05 13:36 | 55.18096 | 12.09301 | 21919 ft | 401 kts | 221° |
| 2026-05-05 13:36 | 55.15895 | 12.06336 | 21919 ft | 401 kts | 219° |
| 2026-05-05 13:37 | 55.13620 | 12.03437 | 21920 ft | 401 kts | 218° |
| 2026-05-05 13:37 | 55.11306 | 12.00546 | 21913 ft | 401 kts | 218° |
| 2026-05-05 13:37 | 55.08959 | 11.97651 | 21889 ft | 395 kts | 217° |
| 2026-05-05 13:37 | 55.06570 | 11.94776 | 21901 ft | 385 kts | 217° |
| 2026-05-05 13:38 | 55.04259 | 11.91944 | 21900 ft | 375 kts | 218° |
| 2026-05-05 13:38 | 55.02047 | 11.89187 | 21904 ft | 366 kts | 218° |
| 2026-05-05 13:38 | 54.99903 | 11.86486 | 21907 ft | 360 kts | 219° |
| 2026-05-05 13:38 | 54.97699 | 11.83650 | 21908 ft | 369 kts | 219° |
| 2026-05-05 13:39 | 54.95467 | 11.80738 | 21910 ft | 375 kts | 220° |
| 2026-05-05 13:39 | 54.93412 | 11.77577 | 21962 ft | 369 kts | 229° |
| 2026-05-05 13:39 | 54.91578 | 11.74328 | 21926 ft | 368 kts | 224° |
| 2026-05-05 13:39 | 54.89422 | 11.71459 | 21918 ft | 369 kts | 218° |
| 2026-05-05 13:40 | 54.87139 | 11.68869 | 21915 ft | 367 kts | 216° |
| 2026-05-05 13:40 | 54.84857 | 11.66379 | 21912 ft | 357 kts | 216° |
| 2026-05-05 13:40 | 54.82686 | 11.63949 | 21915 ft | 351 kts | 217° |
| 2026-05-05 13:40 | 54.80572 | 11.61474 | 21914 ft | 346 kts | 218° |
| 2026-05-05 13:41 | 54.78544 | 11.59030 | 21919 ft | 341 kts | 219° |
| 2026-05-05 13:41 | 54.76530 | 11.56561 | 21916 ft | 336 kts | 219° |
| 2026-05-05 13:41 | 54.74570 | 11.54135 | 21918 ft | 331 kts | 219° |
| 2026-05-05 13:41 | 54.72607 | 11.51699 | 21917 ft | 327 kts | 219° |
| 2026-05-05 13:42 | 54.70687 | 11.49314 | 21913 ft | 323 kts | 220° |
| 2026-05-05 13:42 | 54.68757 | 11.46902 | 21915 ft | 322 kts | 220° |
| 2026-05-05 13:42 | 54.66857 | 11.44525 | 21915 ft | 320 kts | 220° |
| 2026-05-05 13:42 | 54.64943 | 11.42138 | 21922 ft | 320 kts | 219° |
| 2026-05-05 13:43 | 54.63053 | 11.39814 | 21918 ft | 321 kts | 219° |
| 2026-05-05 13:43 | 54.61033 | 11.37400 | 21923 ft | 337 kts | 218° |
| 2026-05-05 13:43 | 54.58931 | 11.34882 | 21919 ft | 353 kts | 218° |
| 2026-05-05 13:43 | 54.56790 | 11.32280 | 21920 ft | 369 kts | 218° |
| 2026-05-05 13:44 | 54.54598 | 11.29602 | 21919 ft | 383 kts | 218° |
| 2026-05-05 13:44 | 54.52404 | 11.26927 | 21925 ft | 397 kts | 218° |
| 2026-05-05 13:44 | 54.50037 | 11.24049 | 21925 ft | 406 kts | 218° |
| 2026-05-05 13:44 | 54.47614 | 11.21114 | 21921 ft | 406 kts | 218° |
| 2026-05-05 13:45 | 54.45170 | 11.18159 | 21926 ft | 405 kts | 218° |
| 2026-05-05 13:45 | 54.42761 | 11.15249 | 21923 ft | 405 kts | 218° |
| 2026-05-05 13:45 | 54.40398 | 11.12394 | 21924 ft | 405 kts | 218° |
| 2026-05-05 13:45 | 54.38088 | 11.09605 | 21924 ft | 405 kts | 218° |
| 2026-05-05 13:46 | 54.35789 | 11.06833 | 21923 ft | 404 kts | 218° |
| 2026-05-05 13:46 | 54.33428 | 11.03937 | 21925 ft | 404 kts | 219° |
| 2026-05-05 13:46 | 54.31216 | 11.00878 | 21923 ft | 402 kts | 224° |
| 2026-05-05 13:46 | 54.29218 | 10.97465 | 21922 ft | 400 kts | 230° |
| 2026-05-05 13:47 | 54.27423 | 10.93879 | 21736 ft | 393 kts | 233° |
| 2026-05-05 13:47 | 54.25710 | 10.90159 | 21471 ft | 393 kts | 234° |
| 2026-05-05 13:47 | 54.23975 | 10.86258 | 21058 ft | 391 kts | 234° |
| 2026-05-05 13:47 | 54.22297 | 10.82459 | 20476 ft | 386 kts | 234° |
| 2026-05-05 13:48 | 54.20546 | 10.78791 | 19843 ft | 383 kts | 227° |
| 2026-05-05 13:48 | 54.18417 | 10.75760 | 19213 ft | 382 kts | 219° |
| 2026-05-05 13:48 | 54.16130 | 10.73145 | 18580 ft | 379 kts | 216° |
| 2026-05-05 13:48 | 54.13895 | 10.70767 | 17996 ft | 375 kts | 215° |
| 2026-05-05 13:49 | 54.11606 | 10.68384 | 17395 ft | 371 kts | 215° |
| 2026-05-05 13:49 | 54.09378 | 10.66077 | 16792 ft | 368 kts | 214° |
| 2026-05-05 13:49 | 54.07130 | 10.63745 | 16200 ft | 364 kts | 214° |
| 2026-05-05 13:49 | 54.04923 | 10.61443 | 15634 ft | 360 kts | 214° |
| 2026-05-05 13:50 | 54.02732 | 10.59148 | 15041 ft | 357 kts | 214° |
| 2026-05-05 13:50 | 54.00602 | 10.56904 | 14461 ft | 354 kts | 214° |
| 2026-05-05 13:50 | 53.98472 | 10.54649 | 13864 ft | 352 kts | 214° |
| 2026-05-05 13:50 | 53.96410 | 10.52454 | 13320 ft | 348 kts | 214° |
| 2026-05-05 13:51 | 53.94320 | 10.50221 | 12788 ft | 345 kts | 214° |
| 2026-05-05 13:51 | 53.92307 | 10.48068 | 12236 ft | 343 kts | 215° |
| 2026-05-05 13:51 | 53.90248 | 10.45865 | 11637 ft | 341 kts | 215° |
| 2026-05-05 13:51 | 53.88200 | 10.43674 | 11080 ft | 338 kts | 215° |
| 2026-05-05 13:52 | 53.86176 | 10.41506 | 10698 ft | 331 kts | 215° |
| 2026-05-05 13:52 | 53.84146 | 10.39330 | 10511 ft | 345 kts | 215° |
| 2026-05-05 13:52 | 53.82021 | 10.37044 | 10244 ft | 351 kts | 215° |
| 2026-05-05 13:52 | 53.79898 | 10.34758 | 9994 ft | 351 kts | 214° |
| 2026-05-05 13:53 | 53.77807 | 10.32510 | 9899 ft | 335 kts | 214° |
| 2026-05-05 13:53 | 53.75838 | 10.30400 | 9904 ft | 316 kts | 214° |
| 2026-05-05 13:53 | 53.73967 | 10.28402 | 9894 ft | 297 kts | 214° |
| 2026-05-05 13:53 | 53.72218 | 10.26546 | 9895 ft | 280 kts | 214° |
| 2026-05-05 13:54 | 53.70539 | 10.24777 | 9898 ft | 267 kts | 214° |
| 2026-05-05 13:54 | 53.68868 | 10.23016 | 9961 ft | 269 kts | 214° |
| 2026-05-05 13:54 | 53.67211 | 10.21263 | 9776 ft | 273 kts | 214° |
| 2026-05-05 13:54 | 53.65545 | 10.19498 | 9373 ft | 273 kts | 214° |
| 2026-05-05 13:55 | 53.63872 | 10.17724 | 9008 ft | 271 kts | 214° |
| 2026-05-05 13:55 | 53.62228 | 10.15980 | 8665 ft | 269 kts | 214° |
| 2026-05-05 13:55 | 53.60600 | 10.14246 | 8327 ft | 267 kts | 214° |
| 2026-05-05 13:55 | 53.58976 | 10.12511 | 7989 ft | 266 kts | 214° |
| 2026-05-05 13:56 | 53.57370 | 10.10786 | 7653 ft | 265 kts | 214° |
| 2026-05-05 13:56 | 53.55809 | 10.09105 | 7325 ft | 264 kts | 214° |
| 2026-05-05 13:56 | 53.54166 | 10.07336 | 6976 ft | 263 kts | 214° |
| 2026-05-05 13:56 | 53.52566 | 10.05611 | 6635 ft | 262 kts | 214° |
| 2026-05-05 13:57 | 53.51040 | 10.03963 | 6310 ft | 261 kts | 214° |
| 2026-05-05 13:57 | 53.49433 | 10.02222 | 5964 ft | 261 kts | 214° |
| 2026-05-05 13:57 | 53.47862 | 10.00401 | 5619 ft | 261 kts | 223° |
| 2026-05-05 13:57 | 53.46722 | 9.97912 | 5279 ft | 260 kts | 242° |
| 2026-05-05 13:58 | 53.45851 | 9.95158 | 4944 ft | 260 kts | 244° |
| 2026-05-05 13:58 | 53.45002 | 9.92355 | 4603 ft | 260 kts | 244° |
| 2026-05-05 13:58 | 53.44168 | 9.89601 | 4270 ft | 260 kts | 244° |
| 2026-05-05 13:58 | 53.43333 | 9.86851 | 4015 ft | 258 kts | 244° |
| 2026-05-05 13:59 | 53.41668 | 9.81320 | 3991 ft | 260 kts | 249° |
| 2026-05-05 13:59 | 53.41325 | 9.78288 | 3897 ft | 258 kts | 276° |
| 2026-05-05 14:00 | 53.43056 | 9.73311 | 3291 ft | 247 kts | 323° |
| 2026-05-05 14:00 | 53.43968 | 9.72073 | 3089 ft | 245 kts | 324° |
| 2026-05-05 14:00 | 53.45878 | 9.70012 | 2983 ft | 224 kts | 347° |
| 2026-05-05 14:00 | 53.47449 | 9.70009 | 2936 ft | 214 kts | 18° |
| 2026-05-05 14:01 | 53.48855 | 9.70937 | 2972 ft | 209 kts | 24° |
| 2026-05-05 14:01 | 53.50245 | 9.71958 | 2974 ft | 208 kts | 24° |
| 2026-05-05 14:01 | 53.51543 | 9.73290 | 2971 ft | 208 kts | 46° |
| 2026-05-05 14:01 | 53.52447 | 9.75312 | 2977 ft | 200 kts | 55° |
| 2026-05-05 14:02 | 53.53247 | 9.77268 | 2917 ft | 187 kts | 54° |
| 2026-05-05 14:02 | 53.54015 | 9.79109 | 2670 ft | 183 kts | 54° |
| 2026-05-05 14:02 | 53.54793 | 9.80961 | 2405 ft | 178 kts | 54° |
| 2026-05-05 14:02 | 53.55508 | 9.82647 | 2139 ft | 165 kts | 53° |
| 2026-05-05 14:03 | 53.56178 | 9.84207 | 1932 ft | 150 kts | 53° |
| 2026-05-05 14:03 | 53.56825 | 9.85685 | 1704 ft | 147 kts | 52° |
| 2026-05-05 14:03 | 53.57455 | 9.87106 | 1500 ft | 145 kts | 52° |
| 2026-05-05 14:03 | 53.58037 | 9.88627 | 1287 ft | 145 kts | 60° |
| 2026-05-05 14:04 | 53.58668 | 9.90128 | 1069 ft | 146 kts | 45° |
| 2026-05-05 14:04 | 53.59425 | 9.91451 | 859 ft | 148 kts | 51° |
| 2026-05-05 14:04 | 53.59988 | 9.93028 | 668 ft | 148 kts | 55° |
| 2026-05-05 14:04 | 53.60760 | 9.94319 | 439 ft | 147 kts | 45° |
| 2026-05-05 14:05 | 53.61478 | 9.95702 | 219 ft | 149 kts | 51° |
| 2026-05-05 14:05 | 53.62190 | 9.97116 | 43 ft | 145 kts | 53° |
| 2026-05-05 14:05 | 53.62773 | 9.98257 | 35 ft | 90 kts | 50° |
| 2026-05-05 14:05 | 53.63055 | 9.98887 | 35 ft | 41 kts | 51° |
| 2026-05-05 14:06 | 53.63217 | 9.99197 | 34 ft | 32 kts | 48° |
| 2026-05-05 14:06 | 53.63287 | 9.99525 | 31 ft | 23 kts | 98° |
| 2026-05-05 14:06 | 53.63280 | 9.99610 | 31 ft | 0 kts | 98° |
| 2026-05-05 14:07 | 53.63277 | 9.99637 | 31 ft | 5 kts | 98° |
| 2026-05-05 14:07 | 53.63274 | 9.99733 | 30 ft | 10 kts | 78° |
| 2026-05-05 14:07 | 53.63316 | 9.99843 | 31 ft | 11 kts | 49° |
| 2026-05-05 14:08 | 53.63377 | 9.99960 | 33 ft | 12 kts | 49° |
| 2026-05-05 14:08 | 53.63427 | 10.00074 | 38 ft | 8 kts | 72° |
| 2026-05-05 14:08 | 53.63419 | 10.00144 | 39 ft | 4 kts | 123° |
| 2026-05-05 14:08 | 53.63403 | 10.00184 | 39 ft | 3 kts | 122° |
| 2026-05-05 14:09 | 53.63377 | 10.00219 | 40 ft | 5 kts | 165° |
| 2026-05-05 14:09 | 53.63335 | 10.00232 | 39 ft | 5 kts | 161° |
| 2026-05-05 14:09 | 53.63318 | 10.00270 | 40 ft | 2 kts | 73° |
| 2026-05-05 14:09 | 53.63325 | 10.00295 | 40 ft | 1 kts | 63° |
| 2026-05-05 14:10 | 53.63329 | 10.00309 | 40 ft | 1 kts | 63° |
| 2026-05-05 14:10 | 53.63332 | 10.00339 | 41 ft | 4 kts | 86° |
| 2026-05-05 14:10 | 53.63332 | 10.00347 | 41 ft | 0 kts | 86° |